sensor_id;sensor_type;location;lat;lon;timestamp;P1;durP1;ratioP1;P2;durP2;ratioP2
62633;SDS011;48704;50.534;6.442;2023-02-05T00:00:51;31.08;;;12.70;;
62633;SDS011;48704;50.534;6.442;2023-02-05T00:03:16;29.58;;;13.50;;
62633;SDS011;48704;50.534;6.442;2023-02-05T00:05:42;27.42;;;11.55;;
62633;SDS011;48704;50.534;6.442;2023-02-05T00:08:07;28.33;;;12.10;;
62633;SDS011;48704;50.534;6.442;2023-02-05T00:10:32;24.13;;;12.02;;
62633;SDS011;48704;50.534;6.442;2023-02-05T00:12:58;30.38;;;12.55;;
62633;SDS011;48704;50.534;6.442;2023-02-05T00:15:23;22.02;;;10.02;;
62633;SDS011;48704;50.534;6.442;2023-02-05T00:17:48;18.90;;;8.77;;
62633;SDS011;48704;50.534;6.442;2023-02-05T00:20:14;20.13;;;8.43;;
62633;SDS011;48704;50.534;6.442;2023-02-05T00:22:39;21.45;;;8.82;;
62633;SDS011;48704;50.534;6.442;2023-02-05T00:25:04;19.00;;;10.05;;
62633;SDS011;48704;50.534;6.442;2023-02-05T00:27:31;24.58;;;10.15;;
62633;SDS011;48704;50.534;6.442;2023-02-05T00:29:57;23.63;;;10.50;;
62633;SDS011;48704;50.534;6.442;2023-02-05T00:32:22;21.13;;;10.57;;
62633;SDS011;48704;50.534;6.442;2023-02-05T00:34:48;23.83;;;9.63;;
62633;SDS011;48704;50.534;6.442;2023-02-05T00:37:13;19.77;;;8.50;;
62633;SDS011;48704;50.534;6.442;2023-02-05T00:39:38;20.48;;;9.20;;
62633;SDS011;48704;50.534;6.442;2023-02-05T00:42:04;20.52;;;9.52;;
62633;SDS011;48704;50.534;6.442;2023-02-05T00:44:29;15.10;;;6.95;;
62633;SDS011;48704;50.534;6.442;2023-02-05T00:46:54;13.98;;;7.30;;
62633;SDS011;48704;50.534;6.442;2023-02-05T00:49:20;17.17;;;7.35;;
62633;SDS011;48704;50.534;6.442;2023-02-05T00:51:45;12.93;;;6.10;;
62633;SDS011;48704;50.534;6.442;2023-02-05T00:54:10;18.67;;;7.28;;
62633;SDS011;48704;50.534;6.442;2023-02-05T00:56:36;14.27;;;6.00;;
62633;SDS011;48704;50.534;6.442;2023-02-05T00:59:01;10.82;;;5.75;;
62633;SDS011;48704;50.534;6.442;2023-02-05T01:01:27;12.07;;;5.30;;
62633;SDS011;48704;50.534;6.442;2023-02-05T01:03:52;12.70;;;5.20;;
62633;SDS011;48704;50.534;6.442;2023-02-05T01:06:18;11.65;;;5.40;;
62633;SDS011;48704;50.534;6.442;2023-02-05T01:08:43;15.48;;;6.32;;
62633;SDS011;48704;50.534;6.442;2023-02-05T01:11:09;12.75;;;5.55;;
62633;SDS011;48704;50.534;6.442;2023-02-05T01:13:35;13.57;;;5.57;;
62633;SDS011;48704;50.534;6.442;2023-02-05T01:16:01;13.77;;;5.35;;
62633;SDS011;48704;50.534;6.442;2023-02-05T01:18:27;12.13;;;5.45;;
62633;SDS011;48704;50.534;6.442;2023-02-05T01:20:52;11.27;;;5.90;;
62633;SDS011;48704;50.534;6.442;2023-02-05T01:23:18;9.25;;;5.22;;
62633;SDS011;48704;50.534;6.442;2023-02-05T01:25:43;10.00;;;4.75;;
62633;SDS011;48704;50.534;6.442;2023-02-05T01:28:08;11.63;;;5.15;;
62633;SDS011;48704;50.534;6.442;2023-02-05T01:30:34;11.77;;;5.10;;
62633;SDS011;48704;50.534;6.442;2023-02-05T01:33:00;11.13;;;5.13;;
62633;SDS011;48704;50.534;6.442;2023-02-05T01:35:26;13.18;;;5.18;;
62633;SDS011;48704;50.534;6.442;2023-02-05T01:37:51;11.70;;;5.43;;
62633;SDS011;48704;50.534;6.442;2023-02-05T01:40:17;11.88;;;5.63;;
62633;SDS011;48704;50.534;6.442;2023-02-05T01:42:43;12.75;;;5.50;;
62633;SDS011;48704;50.534;6.442;2023-02-05T01:47:53;11.85;;;5.55;;
62633;SDS011;48704;50.534;6.442;2023-02-05T01:50:26;11.88;;;4.90;;
62633;SDS011;48704;50.534;6.442;2023-02-05T01:52:55;9.32;;;4.70;;
62633;SDS011;48704;50.534;6.442;2023-02-05T01:55:24;11.63;;;5.32;;
62633;SDS011;48704;50.534;6.442;2023-02-05T01:57:50;9.18;;;4.72;;
62633;SDS011;48704;50.534;6.442;2023-02-05T02:00:17;11.68;;;5.30;;
62633;SDS011;48704;50.534;6.442;2023-02-05T02:02:42;11.93;;;4.82;;
62633;SDS011;48704;50.534;6.442;2023-02-05T02:05:10;11.15;;;4.90;;
62633;SDS011;48704;50.534;6.442;2023-02-05T02:07:38;12.68;;;5.03;;
62633;SDS011;48704;50.534;6.442;2023-02-05T02:10:04;10.50;;;4.25;;
62633;SDS011;48704;50.534;6.442;2023-02-05T02:12:32;11.10;;;5.40;;
62633;SDS011;48704;50.534;6.442;2023-02-05T02:15:03;10.25;;;5.43;;
62633;SDS011;48704;50.534;6.442;2023-02-05T02:17:31;15.23;;;6.10;;
62633;SDS011;48704;50.534;6.442;2023-02-05T02:20:07;12.55;;;4.93;;
62633;SDS011;48704;50.534;6.442;2023-02-05T02:28:42;12.73;;;5.70;;
62633;SDS011;48704;50.534;6.442;2023-02-05T02:33:52;14.35;;;5.70;;
62633;SDS011;48704;50.534;6.442;2023-02-05T02:36:29;10.23;;;5.28;;
62633;SDS011;48704;50.534;6.442;2023-02-05T02:41:39;12.20;;;5.25;;
62633;SDS011;48704;50.534;6.442;2023-02-05T02:44:10;12.73;;;5.43;;
62633;SDS011;48704;50.534;6.442;2023-02-05T02:46:44;13.57;;;4.97;;
62633;SDS011;48704;50.534;6.442;2023-02-05T02:49:14;13.55;;;4.82;;
62633;SDS011;48704;50.534;6.442;2023-02-05T02:51:42;16.35;;;6.38;;
62633;SDS011;48704;50.534;6.442;2023-02-05T02:54:11;12.82;;;4.75;;
62633;SDS011;48704;50.534;6.442;2023-02-05T02:56:40;11.40;;;4.60;;
62633;SDS011;48704;50.534;6.442;2023-02-05T02:59:08;11.63;;;5.93;;
62633;SDS011;48704;50.534;6.442;2023-02-05T03:01:37;9.93;;;4.88;;
62633;SDS011;48704;50.534;6.442;2023-02-05T03:04:12;10.02;;;6.40;;
62633;SDS011;48704;50.534;6.442;2023-02-05T03:06:42;9.25;;;4.00;;
62633;SDS011;48704;50.534;6.442;2023-02-05T03:09:13;9.40;;;4.18;;
62633;SDS011;48704;50.534;6.442;2023-02-05T03:11:49;10.05;;;4.25;;
62633;SDS011;48704;50.534;6.442;2023-02-05T03:14:14;13.68;;;5.40;;
62633;SDS011;48704;50.534;6.442;2023-02-05T03:16:39;12.32;;;5.90;;
62633;SDS011;48704;50.534;6.442;2023-02-05T03:19:05;15.43;;;6.28;;
62633;SDS011;48704;50.534;6.442;2023-02-05T03:21:36;14.20;;;6.32;;
62633;SDS011;48704;50.534;6.442;2023-02-05T03:24:06;18.15;;;7.60;;
62633;SDS011;48704;50.534;6.442;2023-02-05T03:26:33;21.27;;;8.65;;
62633;SDS011;48704;50.534;6.442;2023-02-05T03:28:59;26.38;;;9.93;;
62633;SDS011;48704;50.534;6.442;2023-02-05T03:31:51;28.77;;;10.60;;
62633;SDS011;48704;50.534;6.442;2023-02-05T03:45:55;31.77;;;12.80;;
62633;SDS011;48704;50.534;6.442;2023-02-05T03:53:59;33.50;;;13.77;;
62633;SDS011;48704;50.534;6.442;2023-02-05T03:56:38;41.97;;;15.68;;
62633;SDS011;48704;50.534;6.442;2023-02-05T03:59:09;35.17;;;13.90;;
62633;SDS011;48704;50.534;6.442;2023-02-05T04:01:37;42.00;;;14.95;;
62633;SDS011;48704;50.534;6.442;2023-02-05T04:04:03;49.78;;;21.67;;
62633;SDS011;48704;50.534;6.442;2023-02-05T04:06:28;45.00;;;17.17;;
62633;SDS011;48704;50.534;6.442;2023-02-05T04:08:54;44.70;;;17.40;;
62633;SDS011;48704;50.534;6.442;2023-02-05T04:11:19;40.13;;;16.50;;
62633;SDS011;48704;50.534;6.442;2023-02-05T04:13:44;41.05;;;13.93;;
62633;SDS011;48704;50.534;6.442;2023-02-05T04:16:10;41.67;;;16.20;;
62633;SDS011;48704;50.534;6.442;2023-02-05T04:18:35;43.20;;;14.48;;
62633;SDS011;48704;50.534;6.442;2023-02-05T04:21:00;40.08;;;16.15;;
62633;SDS011;48704;50.534;6.442;2023-02-05T04:23:26;47.60;;;16.48;;
62633;SDS011;48704;50.534;6.442;2023-02-05T04:25:52;47.17;;;16.58;;
62633;SDS011;48704;50.534;6.442;2023-02-05T04:28:18;44.05;;;16.35;;
62633;SDS011;48704;50.534;6.442;2023-02-05T04:30:43;41.90;;;15.70;;
62633;SDS011;48704;50.534;6.442;2023-02-05T04:33:08;46.50;;;16.50;;
62633;SDS011;48704;50.534;6.442;2023-02-05T04:35:34;42.10;;;15.38;;
62633;SDS011;48704;50.534;6.442;2023-02-05T04:37:59;43.95;;;15.50;;
62633;SDS011;48704;50.534;6.442;2023-02-05T04:40:24;44.50;;;17.58;;
62633;SDS011;48704;50.534;6.442;2023-02-05T04:42:49;46.95;;;16.20;;
62633;SDS011;48704;50.534;6.442;2023-02-05T04:45:15;44.92;;;16.58;;
62633;SDS011;48704;50.534;6.442;2023-02-05T04:47:40;31.08;;;11.55;;
62633;SDS011;48704;50.534;6.442;2023-02-05T04:50:05;31.27;;;13.40;;
62633;SDS011;48704;50.534;6.442;2023-02-05T04:52:31;29.65;;;10.50;;
62633;SDS011;48704;50.534;6.442;2023-02-05T04:54:56;25.25;;;10.32;;
62633;SDS011;48704;50.534;6.442;2023-02-05T04:57:21;26.77;;;7.88;;
62633;SDS011;48704;50.534;6.442;2023-02-05T04:59:48;22.83;;;8.70;;
62633;SDS011;48704;50.534;6.442;2023-02-05T05:02:13;17.48;;;6.63;;
62633;SDS011;48704;50.534;6.442;2023-02-05T05:04:39;15.98;;;6.55;;
62633;SDS011;48704;50.534;6.442;2023-02-05T05:07:04;19.23;;;7.35;;
62633;SDS011;48704;50.534;6.442;2023-02-05T05:09:29;13.13;;;5.03;;
62633;SDS011;48704;50.534;6.442;2023-02-05T05:11:54;16.60;;;6.28;;
62633;SDS011;48704;50.534;6.442;2023-02-05T05:14:20;13.80;;;6.07;;
62633;SDS011;48704;50.534;6.442;2023-02-05T05:16:47;16.40;;;5.72;;
62633;SDS011;48704;50.534;6.442;2023-02-05T05:19:13;15.98;;;5.60;;
62633;SDS011;48704;50.534;6.442;2023-02-05T05:21:38;13.07;;;5.28;;
62633;SDS011;48704;50.534;6.442;2023-02-05T05:24:03;12.00;;;6.05;;
62633;SDS011;48704;50.534;6.442;2023-02-05T05:26:29;17.52;;;8.20;;
62633;SDS011;48704;50.534;6.442;2023-02-05T05:28:55;18.35;;;7.85;;
62633;SDS011;48704;50.534;6.442;2023-02-05T05:31:20;27.10;;;9.75;;
62633;SDS011;48704;50.534;6.442;2023-02-05T05:33:46;20.33;;;8.68;;
62633;SDS011;48704;50.534;6.442;2023-02-05T05:36:13;21.23;;;9.50;;
62633;SDS011;48704;50.534;6.442;2023-02-05T05:38:38;29.50;;;10.55;;
62633;SDS011;48704;50.534;6.442;2023-02-05T05:41:04;23.50;;;9.35;;
62633;SDS011;48704;50.534;6.442;2023-02-05T05:43:48;23.90;;;10.05;;
62633;SDS011;48704;50.534;6.442;2023-02-05T05:46:15;26.92;;;11.43;;
62633;SDS011;48704;50.534;6.442;2023-02-05T05:48:53;31.85;;;11.85;;
62633;SDS011;48704;50.534;6.442;2023-02-05T05:51:23;38.20;;;14.15;;
62633;SDS011;48704;50.534;6.442;2023-02-05T05:53:50;36.00;;;14.27;;
62633;SDS011;48704;50.534;6.442;2023-02-05T05:56:16;36.15;;;13.68;;
62633;SDS011;48704;50.534;6.442;2023-02-05T05:58:42;30.10;;;13.10;;
62633;SDS011;48704;50.534;6.442;2023-02-05T06:01:08;30.70;;;12.65;;
62633;SDS011;48704;50.534;6.442;2023-02-05T06:03:34;35.30;;;12.55;;
62633;SDS011;48704;50.534;6.442;2023-02-05T06:06:00;35.85;;;13.40;;
62633;SDS011;48704;50.534;6.442;2023-02-05T06:08:29;34.83;;;13.50;;
62633;SDS011;48704;50.534;6.442;2023-02-05T06:10:56;31.67;;;13.15;;
62633;SDS011;48704;50.534;6.442;2023-02-05T06:13:21;36.05;;;12.85;;
62633;SDS011;48704;50.534;6.442;2023-02-05T06:15:46;29.15;;;12.32;;
62633;SDS011;48704;50.534;6.442;2023-02-05T06:18:13;30.83;;;13.75;;
62633;SDS011;48704;50.534;6.442;2023-02-05T06:20:38;34.17;;;15.02;;
62633;SDS011;48704;50.534;6.442;2023-02-05T06:23:04;35.70;;;14.90;;
62633;SDS011;48704;50.534;6.442;2023-02-05T06:25:29;39.08;;;16.50;;
62633;SDS011;48704;50.534;6.442;2023-02-05T06:27:54;38.38;;;15.18;;
62633;SDS011;48704;50.534;6.442;2023-02-05T06:30:19;38.60;;;15.73;;
62633;SDS011;48704;50.534;6.442;2023-02-05T06:32:45;34.83;;;14.63;;
62633;SDS011;48704;50.534;6.442;2023-02-05T06:35:10;34.55;;;16.48;;
62633;SDS011;48704;50.534;6.442;2023-02-05T06:37:35;40.15;;;16.70;;
62633;SDS011;48704;50.534;6.442;2023-02-05T06:40:01;34.72;;;15.68;;
62633;SDS011;48704;50.534;6.442;2023-02-05T06:42:26;37.72;;;16.70;;
62633;SDS011;48704;50.534;6.442;2023-02-05T06:44:52;42.33;;;18.48;;
62633;SDS011;48704;50.534;6.442;2023-02-05T06:47:17;39.75;;;17.88;;
62633;SDS011;48704;50.534;6.442;2023-02-05T06:49:43;36.70;;;16.52;;
62633;SDS011;48704;50.534;6.442;2023-02-05T06:52:08;37.65;;;17.27;;
62633;SDS011;48704;50.534;6.442;2023-02-05T06:54:33;39.53;;;17.95;;
62633;SDS011;48704;50.534;6.442;2023-02-05T06:56:58;46.17;;;19.08;;
62633;SDS011;48704;50.534;6.442;2023-02-05T06:59:24;42.33;;;17.83;;
62633;SDS011;48704;50.534;6.442;2023-02-05T07:01:49;41.88;;;18.75;;
62633;SDS011;48704;50.534;6.442;2023-02-05T07:04:15;37.00;;;16.15;;
62633;SDS011;48704;50.534;6.442;2023-02-05T07:06:40;45.50;;;17.83;;
62633;SDS011;48704;50.534;6.442;2023-02-05T07:09:05;39.42;;;17.48;;
62633;SDS011;48704;50.534;6.442;2023-02-05T07:11:31;33.38;;;15.93;;
62633;SDS011;48704;50.534;6.442;2023-02-05T07:13:59;34.22;;;15.05;;
62633;SDS011;48704;50.534;6.442;2023-02-05T07:16:25;39.00;;;16.52;;
62633;SDS011;48704;50.534;6.442;2023-02-05T07:18:50;34.00;;;15.80;;
62633;SDS011;48704;50.534;6.442;2023-02-05T07:21:17;36.22;;;16.40;;
62633;SDS011;48704;50.534;6.442;2023-02-05T07:23:42;34.40;;;15.25;;
62633;SDS011;48704;50.534;6.442;2023-02-05T07:26:08;35.55;;;15.77;;
62633;SDS011;48704;50.534;6.442;2023-02-05T07:28:36;34.17;;;16.10;;
62633;SDS011;48704;50.534;6.442;2023-02-05T07:31:02;24.77;;;12.15;;
62633;SDS011;48704;50.534;6.442;2023-02-05T07:33:29;31.20;;;14.45;;
62633;SDS011;48704;50.534;6.442;2023-02-05T07:35:55;30.10;;;14.50;;
62633;SDS011;48704;50.534;6.442;2023-02-05T07:38:20;37.15;;;16.48;;
62633;SDS011;48704;50.534;6.442;2023-02-05T07:40:45;32.47;;;15.10;;
62633;SDS011;48704;50.534;6.442;2023-02-05T07:43:11;31.77;;;13.98;;
62633;SDS011;48704;50.534;6.442;2023-02-05T07:45:36;27.48;;;12.63;;
62633;SDS011;48704;50.534;6.442;2023-02-05T07:48:01;30.45;;;13.30;;
62633;SDS011;48704;50.534;6.442;2023-02-05T07:50:27;27.45;;;12.27;;
62633;SDS011;48704;50.534;6.442;2023-02-05T07:52:52;25.20;;;11.85;;
62633;SDS011;48704;50.534;6.442;2023-02-05T07:55:17;25.13;;;11.82;;
62633;SDS011;48704;50.534;6.442;2023-02-05T07:57:43;22.88;;;11.00;;
62633;SDS011;48704;50.534;6.442;2023-02-05T08:00:09;24.00;;;11.10;;
62633;SDS011;48704;50.534;6.442;2023-02-05T08:02:34;22.00;;;11.38;;
62633;SDS011;48704;50.534;6.442;2023-02-05T08:05:00;22.17;;;10.93;;
62633;SDS011;48704;50.534;6.442;2023-02-05T08:07:25;23.20;;;10.07;;
62633;SDS011;48704;50.534;6.442;2023-02-05T08:09:50;22.40;;;10.93;;
62633;SDS011;48704;50.534;6.442;2023-02-05T08:12:16;19.17;;;8.73;;
62633;SDS011;48704;50.534;6.442;2023-02-05T08:14:41;15.57;;;8.50;;
62633;SDS011;48704;50.534;6.442;2023-02-05T08:17:06;21.65;;;10.27;;
62633;SDS011;48704;50.534;6.442;2023-02-05T08:19:32;20.67;;;9.73;;
62633;SDS011;48704;50.534;6.442;2023-02-05T08:21:57;15.90;;;8.55;;
62633;SDS011;48704;50.534;6.442;2023-02-05T08:24:22;15.55;;;7.68;;
62633;SDS011;48704;50.534;6.442;2023-02-05T08:26:47;16.48;;;8.82;;
62633;SDS011;48704;50.534;6.442;2023-02-05T08:29:13;14.43;;;6.53;;
62633;SDS011;48704;50.534;6.442;2023-02-05T08:31:38;17.95;;;7.13;;
62633;SDS011;48704;50.534;6.442;2023-02-05T08:34:03;11.55;;;5.53;;
62633;SDS011;48704;50.534;6.442;2023-02-05T08:36:29;13.88;;;6.47;;
62633;SDS011;48704;50.534;6.442;2023-02-05T08:38:54;12.68;;;5.63;;
62633;SDS011;48704;50.534;6.442;2023-02-05T08:41:20;10.40;;;5.43;;
62633;SDS011;48704;50.534;6.442;2023-02-05T08:43:46;8.25;;;3.45;;
62633;SDS011;48704;50.534;6.442;2023-02-05T08:46:13;8.20;;;3.80;;
62633;SDS011;48704;50.534;6.442;2023-02-05T08:48:40;9.85;;;4.45;;
62633;SDS011;48704;50.534;6.442;2023-02-05T08:51:08;7.15;;;3.78;;
62633;SDS011;48704;50.534;6.442;2023-02-05T08:53:34;7.90;;;4.18;;
62633;SDS011;48704;50.534;6.442;2023-02-05T08:56:00;7.85;;;4.43;;
62633;SDS011;48704;50.534;6.442;2023-02-05T08:58:26;6.50;;;3.72;;
62633;SDS011;48704;50.534;6.442;2023-02-05T09:00:58;6.47;;;3.42;;
62633;SDS011;48704;50.534;6.442;2023-02-05T09:03:28;8.20;;;4.47;;
62633;SDS011;48704;50.534;6.442;2023-02-05T09:05:54;6.72;;;3.58;;
62633;SDS011;48704;50.534;6.442;2023-02-05T09:08:21;9.57;;;4.57;;
62633;SDS011;48704;50.534;6.442;2023-02-05T09:10:46;8.73;;;4.53;;
62633;SDS011;48704;50.534;6.442;2023-02-05T09:13:11;7.50;;;3.40;;
62633;SDS011;48704;50.534;6.442;2023-02-05T09:15:41;4.65;;;1.90;;
62633;SDS011;48704;50.534;6.442;2023-02-05T09:18:07;6.20;;;2.92;;
62633;SDS011;48704;50.534;6.442;2023-02-05T09:20:33;9.60;;;3.55;;
62633;SDS011;48704;50.534;6.442;2023-02-05T09:22:59;8.88;;;3.25;;
62633;SDS011;48704;50.534;6.442;2023-02-05T09:25:24;5.97;;;3.15;;
62633;SDS011;48704;50.534;6.442;2023-02-05T09:27:49;5.82;;;2.80;;
62633;SDS011;48704;50.534;6.442;2023-02-05T09:30:15;4.80;;;2.38;;
62633;SDS011;48704;50.534;6.442;2023-02-05T09:32:40;5.03;;;1.95;;
62633;SDS011;48704;50.534;6.442;2023-02-05T09:35:05;6.43;;;1.48;;
62633;SDS011;48704;50.534;6.442;2023-02-05T09:37:31;5.25;;;1.75;;
62633;SDS011;48704;50.534;6.442;2023-02-05T09:39:56;3.35;;;1.60;;
62633;SDS011;48704;50.534;6.442;2023-02-05T09:45:15;5.45;;;1.33;;
62633;SDS011;48704;50.534;6.442;2023-02-05T09:47:55;4.13;;;1.20;;
62633;SDS011;48704;50.534;6.442;2023-02-05T09:50:29;4.65;;;1.40;;
62633;SDS011;48704;50.534;6.442;2023-02-05T09:52:58;3.50;;;1.98;;
62633;SDS011;48704;50.534;6.442;2023-02-05T09:55:27;2.60;;;1.25;;
62633;SDS011;48704;50.534;6.442;2023-02-05T09:57:57;4.15;;;1.25;;
62633;SDS011;48704;50.534;6.442;2023-02-05T10:00:31;2.30;;;1.02;;
62633;SDS011;48704;50.534;6.442;2023-02-05T10:08:40;6.15;;;1.60;;
62633;SDS011;48704;50.534;6.442;2023-02-05T10:11:48;2.45;;;1.08;;
62633;SDS011;48704;50.534;6.442;2023-02-05T10:23:08;5.88;;;1.40;;
62633;SDS011;48704;50.534;6.442;2023-02-05T10:26:08;4.07;;;1.27;;
62633;SDS011;48704;50.534;6.442;2023-02-05T10:36:59;6.50;;;1.90;;
62633;SDS011;48704;50.534;6.442;2023-02-05T10:39:28;5.10;;;2.33;;
62633;SDS011;48704;50.534;6.442;2023-02-05T10:42:04;5.68;;;2.00;;
62633;SDS011;48704;50.534;6.442;2023-02-05T10:44:42;5.03;;;1.95;;
62633;SDS011;48704;50.534;6.442;2023-02-05T10:47:16;7.38;;;1.48;;
62633;SDS011;48704;50.534;6.442;2023-02-05T10:49:51;8.30;;;3.25;;
62633;SDS011;48704;50.534;6.442;2023-02-05T10:52:21;6.10;;;2.17;;
62633;SDS011;48704;50.534;6.442;2023-02-05T10:54:46;9.43;;;2.67;;
62633;SDS011;48704;50.534;6.442;2023-02-05T10:57:13;3.90;;;1.77;;
62633;SDS011;48704;50.534;6.442;2023-02-05T10:59:49;3.88;;;1.20;;
62633;SDS011;48704;50.534;6.442;2023-02-05T11:02:19;2.72;;;1.00;;
62633;SDS011;48704;50.534;6.442;2023-02-05T11:04:53;3.08;;;1.17;;
62633;SDS011;48704;50.534;6.442;2023-02-05T11:07:24;3.53;;;1.30;;
62633;SDS011;48704;50.534;6.442;2023-02-05T11:10:11;6.80;;;1.17;;
62633;SDS011;48704;50.534;6.442;2023-02-05T11:12:41;2.05;;;1.20;;
62633;SDS011;48704;50.534;6.442;2023-02-05T11:15:16;6.43;;;1.60;;
62633;SDS011;48704;50.534;6.442;2023-02-05T11:17:44;8.98;;;1.80;;
62633;SDS011;48704;50.534;6.442;2023-02-05T11:22:40;6.65;;;2.20;;
62633;SDS011;48704;50.534;6.442;2023-02-05T11:27:39;8.63;;;2.53;;
62633;SDS011;48704;50.534;6.442;2023-02-05T11:32:49;7.70;;;2.00;;
62633;SDS011;48704;50.534;6.442;2023-02-05T11:35:16;9.90;;;2.28;;
62633;SDS011;48704;50.534;6.442;2023-02-05T11:37:54;7.55;;;2.47;;
62633;SDS011;48704;50.534;6.442;2023-02-05T11:40:33;7.63;;;1.90;;
62633;SDS011;48704;50.534;6.442;2023-02-05T11:43:33;6.10;;;1.27;;
62633;SDS011;48704;50.534;6.442;2023-02-05T11:45:54;4.45;;;1.20;;
62633;SDS011;48704;50.534;6.442;2023-02-05T11:50:53;5.47;;;1.80;;
62633;SDS011;48704;50.534;6.442;2023-02-05T11:53:18;4.47;;;1.60;;
62633;SDS011;48704;50.534;6.442;2023-02-05T11:55:44;6.50;;;1.90;;
62633;SDS011;48704;50.534;6.442;2023-02-05T11:58:34;7.20;;;1.98;;
62633;SDS011;48704;50.534;6.442;2023-02-05T12:01:01;13.65;;;3.55;;
62633;SDS011;48704;50.534;6.442;2023-02-05T12:03:31;9.27;;;2.25;;
62633;SDS011;48704;50.534;6.442;2023-02-05T12:18:55;6.43;;;2.00;;
62633;SDS011;48704;50.534;6.442;2023-02-05T12:21:44;9.57;;;2.22;;
62633;SDS011;48704;50.534;6.442;2023-02-05T12:29:49;10.35;;;2.38;;
62633;SDS011;48704;50.534;6.442;2023-02-05T12:35:04;10.10;;;1.98;;
62633;SDS011;48704;50.534;6.442;2023-02-05T12:37:39;6.15;;;1.80;;
62633;SDS011;48704;50.534;6.442;2023-02-05T12:43:17;9.80;;;1.92;;
62633;SDS011;48704;50.534;6.442;2023-02-05T12:48:26;10.07;;;2.88;;
62633;SDS011;48704;50.534;6.442;2023-02-05T12:53:58;14.98;;;3.08;;
62633;SDS011;48704;50.534;6.442;2023-02-05T12:59:13;10.30;;;2.30;;
62633;SDS011;48704;50.534;6.442;2023-02-05T13:04:24;13.40;;;2.83;;
62633;SDS011;48704;50.534;6.442;2023-02-05T13:12:26;21.83;;;2.88;;
62633;SDS011;48704;50.534;6.442;2023-02-05T13:14:59;12.05;;;2.33;;
62633;SDS011;48704;50.534;6.442;2023-02-05T13:17:27;14.98;;;2.35;;
62633;SDS011;48704;50.534;6.442;2023-02-05T13:19:58;9.90;;;2.33;;
62633;SDS011;48704;50.534;6.442;2023-02-05T13:22:27;13.10;;;2.65;;
62633;SDS011;48704;50.534;6.442;2023-02-05T13:28:13;13.90;;;2.60;;
62633;SDS011;48704;50.534;6.442;2023-02-05T13:31:09;11.20;;;2.22;;
62633;SDS011;48704;50.534;6.442;2023-02-05T13:33:39;13.57;;;2.80;;
62633;SDS011;48704;50.534;6.442;2023-02-05T13:36:20;16.30;;;2.90;;
62633;SDS011;48704;50.534;6.442;2023-02-05T13:42:18;18.42;;;3.35;;
62633;SDS011;48704;50.534;6.442;2023-02-05T13:44:56;13.88;;;2.80;;
62633;SDS011;48704;50.534;6.442;2023-02-05T13:58:55;21.10;;;3.15;;
62633;SDS011;48704;50.534;6.442;2023-02-05T14:04:39;15.80;;;3.22;;
62633;SDS011;48704;50.534;6.442;2023-02-05T14:06:54;5.55;;;1.98;;
62633;SDS011;48704;50.534;6.442;2023-02-05T14:09:23;9.40;;;2.05;;
62633;SDS011;48704;50.534;6.442;2023-02-05T14:11:57;6.35;;;1.77;;
62633;SDS011;48704;50.534;6.442;2023-02-05T14:14:29;13.18;;;2.53;;
62633;SDS011;48704;50.534;6.442;2023-02-05T14:16:58;13.48;;;1.80;;
62633;SDS011;48704;50.534;6.442;2023-02-05T14:19:26;12.00;;;2.63;;
62633;SDS011;48704;50.534;6.442;2023-02-05T14:22:02;8.57;;;2.35;;
62633;SDS011;48704;50.534;6.442;2023-02-05T14:24:47;4.18;;;1.33;;
62633;SDS011;48704;50.534;6.442;2023-02-05T14:27:42;12.30;;;2.53;;
62633;SDS011;48704;50.534;6.442;2023-02-05T14:35:34;7.78;;;2.00;;
62633;SDS011;48704;50.534;6.442;2023-02-05T14:38:23;3.90;;;1.33;;
62633;SDS011;48704;50.534;6.442;2023-02-05T14:41:11;8.43;;;2.20;;
62633;SDS011;48704;50.534;6.442;2023-02-05T14:43:41;6.03;;;2.13;;
62633;SDS011;48704;50.534;6.442;2023-02-05T14:46:30;9.05;;;2.58;;
62633;SDS011;48704;50.534;6.442;2023-02-05T14:49:00;13.65;;;2.13;;
62633;SDS011;48704;50.534;6.442;2023-02-05T14:54:05;10.50;;;2.15;;
62633;SDS011;48704;50.534;6.442;2023-02-05T14:56:44;12.80;;;2.85;;
62633;SDS011;48704;50.534;6.442;2023-02-05T15:01:45;9.73;;;3.28;;
62633;SDS011;48704;50.534;6.442;2023-02-05T15:07:18;4.88;;;1.23;;
62633;SDS011;48704;50.534;6.442;2023-02-05T15:09:56;7.97;;;1.73;;
62633;SDS011;48704;50.534;6.442;2023-02-05T15:12:29;6.85;;;1.92;;
62633;SDS011;48704;50.534;6.442;2023-02-05T15:15:23;5.25;;;1.27;;
62633;SDS011;48704;50.534;6.442;2023-02-05T15:18:03;6.47;;;2.13;;
62633;SDS011;48704;50.534;6.442;2023-02-05T15:20:55;10.98;;;2.40;;
62633;SDS011;48704;50.534;6.442;2023-02-05T15:23:29;10.30;;;2.92;;
62633;SDS011;48704;50.534;6.442;2023-02-05T15:26:03;7.15;;;2.13;;
62633;SDS011;48704;50.534;6.442;2023-02-05T15:28:32;7.60;;;1.98;;
62633;SDS011;48704;50.534;6.442;2023-02-05T15:33:55;8.77;;;1.90;;
62633;SDS011;48704;50.534;6.442;2023-02-05T15:36:25;9.18;;;2.17;;
62633;SDS011;48704;50.534;6.442;2023-02-05T15:39:11;10.40;;;2.55;;
62633;SDS011;48704;50.534;6.442;2023-02-05T15:41:43;6.90;;;1.98;;
62633;SDS011;48704;50.534;6.442;2023-02-05T15:44:20;7.55;;;1.65;;
62633;SDS011;48704;50.534;6.442;2023-02-05T15:46:50;15.60;;;2.42;;
62633;SDS011;48704;50.534;6.442;2023-02-05T15:49:16;6.45;;;2.00;;
62633;SDS011;48704;50.534;6.442;2023-02-05T15:51:42;6.15;;;1.63;;
62633;SDS011;48704;50.534;6.442;2023-02-05T15:54:12;14.63;;;2.08;;
62633;SDS011;48704;50.534;6.442;2023-02-05T15:56:44;15.10;;;4.05;;
62633;SDS011;48704;50.534;6.442;2023-02-05T15:59:16;10.60;;;3.17;;
62633;SDS011;48704;50.534;6.442;2023-02-05T16:01:46;14.02;;;6.38;;
62633;SDS011;48704;50.534;6.442;2023-02-05T16:04:17;15.38;;;3.45;;
62633;SDS011;48704;50.534;6.442;2023-02-05T16:06:44;22.75;;;4.97;;
62633;SDS011;48704;50.534;6.442;2023-02-05T16:09:14;17.02;;;6.38;;
62633;SDS011;48704;50.534;6.442;2023-02-05T16:11:42;10.02;;;4.07;;
62633;SDS011;48704;50.534;6.442;2023-02-05T16:16:43;17.15;;;3.83;;
62633;SDS011;48704;50.534;6.442;2023-02-05T16:19:20;13.98;;;4.88;;
62633;SDS011;48704;50.534;6.442;2023-02-05T16:21:52;21.02;;;6.20;;
62633;SDS011;48704;50.534;6.442;2023-02-05T16:24:30;15.05;;;5.22;;
62633;SDS011;48704;50.534;6.442;2023-02-05T16:27:21;19.52;;;8.43;;
62633;SDS011;48704;50.534;6.442;2023-02-05T16:29:59;10.57;;;3.83;;
62633;SDS011;48704;50.534;6.442;2023-02-05T16:32:35;24.25;;;7.90;;
62633;SDS011;48704;50.534;6.442;2023-02-05T16:35:04;13.20;;;3.78;;
62633;SDS011;48704;50.534;6.442;2023-02-05T16:37:32;31.88;;;11.50;;
62633;SDS011;48704;50.534;6.442;2023-02-05T16:39:59;22.80;;;9.40;;
62633;SDS011;48704;50.534;6.442;2023-02-05T16:42:39;28.48;;;9.65;;
62633;SDS011;48704;50.534;6.442;2023-02-05T16:47:33;26.13;;;9.65;;
62633;SDS011;48704;50.534;6.442;2023-02-05T16:49:59;20.08;;;7.85;;
62633;SDS011;48704;50.534;6.442;2023-02-05T16:54:50;22.40;;;6.18;;
62633;SDS011;48704;50.534;6.442;2023-02-05T16:57:21;21.42;;;3.97;;
62633;SDS011;48704;50.534;6.442;2023-02-05T17:02:25;13.23;;;5.38;;
62633;SDS011;48704;50.534;6.442;2023-02-05T17:05:01;18.63;;;3.13;;
62633;SDS011;48704;50.534;6.442;2023-02-05T17:07:29;18.58;;;6.63;;
62633;SDS011;48704;50.534;6.442;2023-02-05T17:10:10;11.38;;;3.38;;
62633;SDS011;48704;50.534;6.442;2023-02-05T17:12:39;30.55;;;8.00;;
62633;SDS011;48704;50.534;6.442;2023-02-05T17:17:46;18.23;;;4.28;;
62633;SDS011;48704;50.534;6.442;2023-02-05T17:22:39;22.98;;;5.47;;
62633;SDS011;48704;50.534;6.442;2023-02-05T17:25:35;10.52;;;2.33;;